Nabesna, Alaska
Current Conditions -  °F | °C
As of 11:53 PM on Monday 20 Oct 2014 (Local Time) from PAOR Reporting Station
Broken Clouds Broken Clouds  
Wind Chill: 20°   Ceiling: 12000
Heat Index: 28°   Visibility: 10mi
Dew Point: 27°   Wind: 8mph
Humidity: 96%   Direction: 100°E
Pressure: 29.22"   Gusts: NA
Location:  62.4°N, 143°W
Report Text: PAOR 210753Z 10007KT 10SM SCT075 BKN120 M02/M03 A2922 RMK AO2 SLP921 T10221028
Loading
Personal Weather Stations






























Interactive Weather Map
Tropical Storm Tracking
New forecast layout! Learn more

10-Day Weather Forecast

Advertisements
Track Severe Weather on mobile